createdAt,value
2023-02-21T00:02:02.839Z,9.70
2023-02-21T00:04:48.168Z,9.70
2023-02-21T00:07:33.534Z,9.70
2023-02-21T00:10:18.918Z,9.70
2023-02-21T00:13:04.330Z,9.70
2023-02-21T00:15:49.589Z,9.70
2023-02-21T00:18:34.912Z,9.70
2023-02-21T00:21:20.318Z,9.70
2023-02-21T00:24:05.612Z,9.60
2023-02-21T00:26:50.953Z,9.50
2023-02-21T00:29:36.441Z,9.30
2023-02-21T00:32:21.820Z,9.30
2023-02-21T00:35:07.065Z,9.20
2023-02-21T00:37:52.666Z,9.20
2023-02-21T00:40:38.248Z,9.20
2023-02-21T00:43:23.664Z,9.10
2023-02-21T00:46:09.207Z,9.10
2023-02-21T00:48:54.296Z,9.00
2023-02-21T00:51:39.678Z,9.00
2023-02-21T00:54:25.092Z,9.10
2023-02-21T00:57:10.523Z,9.00
2023-02-21T00:59:56.013Z,8.90
2023-02-21T01:02:41.330Z,8.90
2023-02-21T01:05:27.354Z,8.80
2023-02-21T01:08:12.752Z,8.80
2023-02-21T01:10:57.988Z,8.80
2023-02-21T01:13:43.385Z,8.80
2023-02-21T01:16:28.825Z,8.80
2023-02-21T01:19:14.353Z,8.80
2023-02-21T01:21:59.794Z,8.80
2023-02-21T01:24:45.134Z,8.70
2023-02-21T01:27:30.596Z,8.60
2023-02-21T01:30:16.011Z,8.60
2023-02-21T01:33:01.282Z,8.60
2023-02-21T01:35:46.620Z,8.60
2023-02-21T01:38:32.037Z,8.60
2023-02-21T01:41:17.419Z,8.60
2023-02-21T01:44:21.127Z,8.60
2023-02-21T01:47:06.440Z,8.50
2023-02-21T01:49:55.072Z,8.50
2023-02-21T01:52:40.833Z,8.50
2023-02-21T01:55:27.791Z,8.50
2023-02-21T01:58:14.188Z,8.50
2023-02-21T02:00:59.690Z,8.40
2023-02-21T02:03:45.651Z,8.40
2023-02-21T02:06:33.834Z,8.40
2023-02-21T02:09:32.844Z,8.40
2023-02-21T02:12:37.191Z,8.60
2023-02-21T02:15:27.098Z,8.40
2023-02-21T02:17:59.708Z,8.40
2023-02-21T02:20:47.704Z,8.40
2023-02-21T02:23:47.064Z,8.40
2023-02-21T02:26:41.350Z,8.40
2023-02-21T02:29:45.653Z,8.50
2023-02-21T02:32:47.201Z,8.40
2023-02-21T02:35:28.888Z,8.20
2023-02-21T02:38:06.357Z,8.20
2023-02-21T02:40:59.392Z,8.30
2023-02-21T02:43:36.083Z,8.30
2023-02-21T02:46:06.183Z,8.40
2023-02-21T02:48:40.596Z,8.40
2023-02-21T02:51:11.198Z,8.40
2023-02-21T02:53:38.154Z,8.50
2023-02-21T02:56:10.909Z,8.60
2023-02-21T02:58:44.659Z,8.60
2023-02-21T03:01:36.408Z,8.70
2023-02-21T03:04:15.362Z,8.80
2023-02-21T03:07:01.976Z,8.90
2023-02-21T03:09:33.967Z,8.90
2023-02-21T03:12:12.359Z,8.90
2023-02-21T03:14:50.376Z,9.00
2023-02-21T03:17:19.898Z,9.00
2023-02-21T03:19:48.657Z,9.00
2023-02-21T03:22:19.714Z,9.00
2023-02-21T03:24:48.963Z,9.00
2023-02-21T03:27:17.559Z,8.90
2023-02-21T03:29:47.895Z,8.90
2023-02-21T03:32:30.316Z,8.70
2023-02-21T03:34:57.020Z,8.60
2023-02-21T03:37:40.793Z,8.40
2023-02-21T03:40:23.788Z,8.30
2023-02-21T03:42:55.141Z,8.10
2023-02-21T03:45:22.348Z,8.00
2023-02-21T03:47:49.060Z,8.00
2023-02-21T03:50:16.211Z,8.00
2023-02-21T03:52:42.845Z,7.80
2023-02-21T03:55:09.840Z,7.80
2023-02-21T03:57:36.606Z,7.80
2023-02-21T04:00:03.570Z,7.70
2023-02-21T04:02:30.205Z,7.60
2023-02-21T04:04:56.817Z,7.60
2023-02-21T04:07:23.428Z,7.70
2023-02-21T04:09:50.088Z,7.70
2023-02-21T04:12:16.915Z,7.70
2023-02-21T04:14:43.552Z,7.70
2023-02-21T04:17:10.137Z,7.70
2023-02-21T04:19:36.765Z,7.80
2023-02-21T04:22:03.442Z,7.80
2023-02-21T04:24:30.189Z,7.90
2023-02-21T04:26:56.805Z,7.80
2023-02-21T04:29:23.571Z,7.90
2023-02-21T04:31:50.529Z,7.90
2023-02-21T04:34:17.450Z,7.80
2023-02-21T04:36:44.232Z,7.80
2023-02-21T04:39:10.851Z,7.80
2023-02-21T04:41:37.519Z,7.80
2023-02-21T04:44:04.379Z,7.80
2023-02-21T04:46:30.991Z,7.70
2023-02-21T04:48:57.915Z,7.70
2023-02-21T04:51:25.685Z,7.70
2023-02-21T04:53:53.416Z,7.70
2023-02-21T04:56:23.334Z,7.80
2023-02-21T04:58:50.466Z,7.80
2023-02-21T05:01:19.298Z,7.80
2023-02-21T05:03:46.144Z,7.80
2023-02-21T05:06:21.399Z,7.80
2023-02-21T05:08:48.122Z,7.80
2023-02-21T05:11:16.514Z,7.90
2023-02-21T05:13:43.816Z,7.90
2023-02-21T05:16:10.811Z,8.00
2023-02-21T05:18:38.521Z,8.00
2023-02-21T05:21:08.172Z,8.00
2023-02-21T05:23:35.961Z,8.10
2023-02-21T05:26:13.564Z,8.10
2023-02-21T05:28:40.818Z,8.20
2023-02-21T05:31:08.275Z,8.20
2023-02-21T05:33:34.931Z,8.20
2023-02-21T05:36:01.675Z,8.20
2023-02-21T05:38:28.334Z,8.20
2023-02-21T05:40:54.983Z,8.20
2023-02-21T05:43:21.834Z,8.10
2023-02-21T05:45:48.550Z,8.10
2023-02-21T05:48:15.522Z,8.10
2023-02-21T05:50:42.262Z,8.10
2023-02-21T05:53:10.300Z,8.10
2023-02-21T05:55:37.376Z,8.00
2023-02-21T05:58:04.205Z,7.90
2023-02-21T06:00:31.061Z,7.90
2023-02-21T06:02:57.829Z,7.90
2023-02-21T06:05:24.822Z,7.90
2023-02-21T06:07:51.628Z,7.90
2023-02-21T06:10:19.366Z,7.90
2023-02-21T06:12:46.145Z,7.90
2023-02-21T06:15:13.129Z,7.90
2023-02-21T06:17:41.357Z,7.90
2023-02-21T06:20:12.405Z,7.90
2023-02-21T06:22:38.994Z,7.90
2023-02-21T06:25:06.036Z,7.90
2023-02-21T06:27:32.625Z,8.00
2023-02-21T06:29:59.252Z,8.00
2023-02-21T06:32:27.333Z,8.00
2023-02-21T06:34:53.977Z,8.00
2023-02-21T06:37:20.655Z,8.00
2023-02-21T06:39:47.249Z,8.10
2023-02-21T06:42:15.122Z,8.10
2023-02-21T06:44:46.191Z,8.10
2023-02-21T06:47:13.215Z,8.10
2023-02-21T06:49:39.950Z,8.10
2023-02-21T06:52:07.208Z,8.10
2023-02-21T06:54:34.011Z,8.20
2023-02-21T06:57:01.680Z,8.20
2023-02-21T06:59:29.329Z,8.20
2023-02-21T07:01:56.730Z,8.20
2023-02-21T07:04:24.574Z,8.20
2023-02-21T07:06:52.091Z,8.30
2023-02-21T07:09:18.865Z,8.30
2023-02-21T07:11:46.944Z,8.30
2023-02-21T07:14:14.102Z,8.30
2023-02-21T07:16:40.791Z,8.40
2023-02-21T07:19:08.322Z,8.40
2023-02-21T07:21:34.968Z,8.50
2023-02-21T07:24:01.640Z,8.50
2023-02-21T07:26:28.263Z,8.50
2023-02-21T07:28:55.036Z,8.50
2023-02-21T07:31:22.048Z,8.50
2023-02-21T07:33:48.889Z,8.50
2023-02-21T07:36:16.064Z,8.60
2023-02-21T07:38:42.725Z,8.50
2023-02-21T07:41:09.327Z,8.40
2023-02-21T07:43:35.997Z,8.40
2023-02-21T07:46:02.723Z,8.40
2023-02-21T07:48:29.443Z,8.40
2023-02-21T07:50:56.102Z,8.40
2023-02-21T07:53:22.795Z,8.50
2023-02-21T07:55:49.506Z,8.50
2023-02-21T07:58:16.131Z,8.50
2023-02-21T08:00:42.814Z,8.60
2023-02-21T08:03:13.489Z,8.60
2023-02-21T08:05:40.982Z,8.70
2023-02-21T08:08:12.142Z,8.80
2023-02-21T08:10:38.739Z,8.90
2023-02-21T08:13:05.927Z,9.00
2023-02-21T08:15:32.697Z,9.00
2023-02-21T08:17:59.381Z,9.00
2023-02-21T08:20:26.047Z,9.10
2023-02-21T08:22:52.739Z,9.10
2023-02-21T08:25:19.387Z,9.20
2023-02-21T08:27:46.932Z,9.30
2023-02-21T08:30:16.602Z,9.40
2023-02-21T08:32:43.838Z,9.40
2023-02-21T08:35:16.825Z,9.50
2023-02-21T08:37:47.607Z,9.40
2023-02-21T08:40:15.595Z,9.50
2023-02-21T08:42:42.297Z,9.50
2023-02-21T08:45:14.768Z,9.60
2023-02-21T08:47:41.415Z,9.70
2023-02-21T08:50:08.588Z,9.70
2023-02-21T08:52:35.271Z,9.80
2023-02-21T08:55:01.956Z,9.90
2023-02-21T08:57:28.636Z,10.00
2023-02-21T08:59:55.390Z,10.00
2023-02-21T09:02:28.385Z,10.00
2023-02-21T09:04:55.038Z,10.10
2023-02-21T09:07:23.834Z,10.10
2023-02-21T09:09:50.548Z,10.20
2023-02-21T09:12:18.296Z,10.20
2023-02-21T09:14:45.002Z,10.20
2023-02-21T09:17:13.955Z,10.20
2023-02-21T09:19:41.403Z,10.30
2023-02-21T09:22:09.424Z,10.40
2023-02-21T09:24:36.602Z,10.40
2023-02-21T09:27:07.812Z,10.50
2023-02-21T09:29:46.063Z,10.50
2023-02-21T09:32:14.179Z,10.50
2023-02-21T09:34:41.354Z,10.70
2023-02-21T09:37:08.002Z,10.70
2023-02-21T09:39:38.078Z,10.80
2023-02-21T09:42:09.654Z,10.90
2023-02-21T09:44:36.395Z,11.00
2023-02-21T09:47:05.970Z,11.10
2023-02-21T09:49:41.805Z,11.10
2023-02-21T09:52:22.555Z,11.20
2023-02-21T09:54:56.236Z,11.20
2023-02-21T09:57:22.922Z,11.30
2023-02-21T09:59:50.085Z,11.30
2023-02-21T10:02:25.091Z,11.30
2023-02-21T10:05:09.842Z,11.30
2023-02-21T10:07:57.110Z,11.30
2023-02-21T10:10:55.431Z,11.30
2023-02-21T10:13:52.554Z,11.30
2023-02-21T10:16:44.333Z,11.30
2023-02-21T10:19:13.907Z,11.30
2023-02-21T10:21:47.590Z,11.40
2023-02-21T10:24:23.290Z,11.50
2023-02-21T10:27:06.566Z,11.50
2023-02-21T10:29:44.116Z,11.50
2023-02-21T10:32:11.089Z,11.60
2023-02-21T10:34:37.962Z,11.70
2023-02-21T10:37:13.291Z,11.70
2023-02-21T10:39:46.547Z,11.80
2023-02-21T10:42:35.014Z,11.80
2023-02-21T10:45:04.440Z,11.80
2023-02-21T10:47:37.197Z,11.80
2023-02-21T10:50:09.731Z,11.80
2023-02-21T10:52:38.635Z,11.80
2023-02-21T10:55:32.347Z,11.80
2023-02-21T10:58:11.483Z,11.80
2023-02-21T11:00:47.629Z,11.90
2023-02-21T11:03:23.850Z,11.90
2023-02-21T11:05:52.336Z,12.00
2023-02-21T11:08:42.371Z,12.10
2023-02-21T11:11:10.826Z,12.10
2023-02-21T11:13:37.643Z,12.00
2023-02-21T11:16:12.287Z,12.00
2023-02-21T11:18:39.284Z,11.90
2023-02-21T11:21:14.370Z,12.00
2023-02-21T11:23:49.090Z,12.00
2023-02-21T11:26:16.230Z,12.00
2023-02-21T11:28:44.845Z,12.00
2023-02-21T11:31:31.407Z,12.00
2023-02-21T11:34:01.391Z,12.10
2023-02-21T11:36:35.109Z,12.10
2023-02-21T11:39:17.926Z,12.10
2023-02-21T11:41:56.101Z,12.10
2023-02-21T11:44:28.339Z,12.10
2023-02-21T11:47:05.029Z,12.10
2023-02-21T11:49:52.088Z,12.20
2023-02-21T11:52:34.642Z,12.20
2023-02-21T11:55:01.428Z,12.20
2023-02-21T11:57:46.834Z,12.20
2023-02-21T12:01:06.158Z,12.20
2023-02-21T12:03:44.185Z,12.40
2023-02-21T12:06:15.610Z,12.40
2023-02-21T12:09:04.105Z,12.60
2023-02-21T12:11:49.162Z,12.60
2023-02-21T12:15:04.100Z,12.70
2023-02-21T12:17:49.538Z,12.80
2023-02-21T12:20:25.212Z,13.00
2023-02-21T12:23:23.134Z,13.00
2023-02-21T12:26:02.897Z,13.10
2023-02-21T12:29:00.775Z,13.20
2023-02-21T12:31:52.099Z,13.20
2023-02-21T12:34:45.645Z,13.20
2023-02-21T12:37:21.259Z,13.30
2023-02-21T12:40:14.154Z,13.30
2023-02-21T12:42:56.653Z,13.40
2023-02-21T12:45:45.168Z,13.50
2023-02-21T12:48:21.482Z,13.50
2023-02-21T12:50:54.563Z,13.60
2023-02-21T12:53:57.422Z,13.70
2023-02-21T12:56:49.791Z,13.80
2023-02-21T12:59:58.008Z,13.90
2023-02-21T13:02:53.797Z,13.90
2023-02-21T13:05:27.971Z,14.00
2023-02-21T13:08:05.364Z,14.20
2023-02-21T13:10:52.197Z,14.00
2023-02-21T13:13:24.771Z,13.90
2023-02-21T13:15:54.064Z,13.90
2023-02-21T13:18:29.002Z,13.90
2023-02-21T13:21:18.940Z,13.80
2023-02-21T13:23:55.087Z,13.80
2023-02-21T13:26:44.641Z,13.80
2023-02-21T13:29:32.204Z,13.70
2023-02-21T13:32:02.804Z,13.70
2023-02-21T13:34:36.152Z,13.80
2023-02-21T13:37:06.908Z,13.80
2023-02-21T13:39:38.392Z,13.80
2023-02-21T13:42:18.048Z,13.90
2023-02-21T13:44:48.703Z,13.90
2023-02-21T13:47:21.157Z,14.10
2023-02-21T13:49:57.402Z,14.20
2023-02-21T13:52:28.953Z,14.30
2023-02-21T13:55:14.118Z,14.30
2023-02-21T13:58:02.651Z,14.40
2023-02-21T14:00:29.600Z,14.40
2023-02-21T14:03:00.389Z,14.40
2023-02-21T14:05:52.885Z,14.40
2023-02-21T14:08:32.517Z,14.30
2023-02-21T14:11:07.058Z,14.40
2023-02-21T14:13:33.714Z,14.40
2023-02-21T14:16:10.250Z,14.40
2023-02-21T14:19:07.273Z,14.30
2023-02-21T14:21:41.003Z,14.30
2023-02-21T14:24:10.365Z,14.40
2023-02-21T14:26:49.951Z,14.50
2023-02-21T14:29:42.234Z,14.70
2023-02-21T14:32:09.046Z,15.00
2023-02-21T14:34:42.311Z,15.20
2023-02-21T14:37:27.542Z,15.20
2023-02-21T14:40:01.807Z,15.10
2023-02-21T14:42:54.785Z,15.10
2023-02-21T14:45:21.512Z,15.00
2023-02-21T14:48:15.575Z,15.00
2023-02-21T14:51:03.753Z,15.00
2023-02-21T14:54:08.708Z,15.10
2023-02-21T14:56:58.724Z,15.20
2023-02-21T14:59:45.193Z,15.50
2023-02-21T15:02:23.874Z,15.60
2023-02-21T15:05:09.101Z,15.80
2023-02-21T15:07:51.912Z,15.90
2023-02-21T15:10:21.449Z,16.10
2023-02-21T15:12:55.378Z,16.20
2023-02-21T15:15:34.079Z,16.30
2023-02-21T15:18:05.726Z,16.40
2023-02-21T15:20:38.556Z,16.90
2023-02-21T15:23:19.516Z,17.10
2023-02-21T15:25:54.899Z,17.40
2023-02-21T15:28:32.427Z,17.40
2023-02-21T15:31:03.633Z,17.40
2023-02-21T15:33:40.517Z,17.40
2023-02-21T15:36:15.937Z,17.50
2023-02-21T15:38:46.458Z,17.60
2023-02-21T15:41:33.507Z,17.50
2023-02-21T15:44:24.632Z,17.70
2023-02-21T15:47:05.004Z,17.70
2023-02-21T15:49:43.486Z,17.40
2023-02-21T15:52:34.546Z,16.80
2023-02-21T15:55:16.013Z,16.30
2023-02-21T15:57:42.885Z,15.80
2023-02-21T16:00:34.945Z,15.60
2023-02-21T16:03:26.285Z,15.50
2023-02-21T16:05:55.516Z,15.50
2023-02-21T16:08:22.756Z,15.60
2023-02-21T16:10:49.541Z,15.50
2023-02-21T16:13:16.334Z,15.50
2023-02-21T16:15:43.416Z,15.50
2023-02-21T16:18:16.769Z,15.40
2023-02-21T16:20:45.248Z,15.40
2023-02-21T16:23:20.589Z,15.10
2023-02-21T16:26:01.382Z,15.10
2023-02-21T16:28:30.138Z,14.90
2023-02-21T16:31:00.858Z,14.80
2023-02-21T16:33:28.909Z,14.70
2023-02-21T16:35:56.143Z,14.70
2023-02-21T16:38:26.799Z,14.70
2023-02-21T16:40:53.841Z,14.60
2023-02-21T16:43:26.742Z,14.60
2023-02-21T16:45:56.293Z,14.60
2023-02-21T16:48:32.912Z,14.60
2023-02-21T16:51:07.258Z,14.60
2023-02-21T16:53:33.930Z,14.60
2023-02-21T16:56:05.076Z,14.60
2023-02-21T16:58:34.959Z,14.70
2023-02-21T17:01:24.095Z,14.60
2023-02-21T17:03:52.979Z,14.60
2023-02-21T17:06:23.110Z,14.50
2023-02-21T17:08:50.545Z,14.50
2023-02-21T17:11:17.502Z,14.40
2023-02-21T17:13:44.387Z,14.30
2023-02-21T17:16:11.158Z,14.10
2023-02-21T17:18:37.869Z,13.90
2023-02-21T17:21:04.901Z,13.80
2023-02-21T17:23:31.575Z,13.70
2023-02-21T17:25:58.254Z,13.60
2023-02-21T17:28:24.913Z,13.50
2023-02-21T17:30:51.892Z,13.40
2023-02-21T17:33:18.905Z,13.40
2023-02-21T17:35:45.645Z,13.40
2023-02-21T17:38:12.372Z,13.30
2023-02-21T17:40:39.094Z,13.30
2023-02-21T17:43:09.105Z,13.30
2023-02-21T17:45:38.582Z,13.20
2023-02-21T17:48:06.086Z,13.20
2023-02-21T17:50:33.019Z,13.10
2023-02-21T17:53:00.057Z,13.10
2023-02-21T17:55:26.831Z,13.10
2023-02-21T17:57:53.687Z,13.10
2023-02-21T18:00:27.067Z,13.00
2023-02-21T18:02:55.397Z,13.00
2023-02-21T18:05:22.264Z,13.00
2023-02-21T18:07:50.902Z,13.00
2023-02-21T18:10:19.622Z,12.90
2023-02-21T18:12:48.203Z,12.90
2023-02-21T18:15:16.680Z,12.90
2023-02-21T18:17:43.347Z,12.80
2023-02-21T18:20:11.079Z,12.80
2023-02-21T18:22:38.420Z,12.80
2023-02-21T18:25:06.307Z,12.80
2023-02-21T18:27:32.970Z,12.80
2023-02-21T18:29:59.708Z,12.80
2023-02-21T18:32:26.988Z,12.80
2023-02-21T18:34:53.770Z,12.80
2023-02-21T18:37:20.616Z,12.80
2023-02-21T18:39:54.489Z,12.80
2023-02-21T18:42:23.993Z,12.90
2023-02-21T18:44:51.582Z,12.90
2023-02-21T18:47:19.283Z,12.90
2023-02-21T18:49:47.716Z,12.90
2023-02-21T18:52:15.476Z,12.90
2023-02-21T18:54:47.970Z,12.90
2023-02-21T18:57:18.691Z,12.90
2023-02-21T18:59:45.684Z,12.90
2023-02-21T19:02:17.478Z,12.90
2023-02-21T19:04:45.522Z,12.90
2023-02-21T19:07:14.696Z,13.00
2023-02-21T19:09:41.392Z,13.00
2023-02-21T19:12:08.349Z,13.00
2023-02-21T19:14:35.841Z,13.00
2023-02-21T19:17:02.638Z,13.00
2023-02-21T19:19:32.456Z,13.00
2023-02-21T19:22:00.003Z,13.00
2023-02-21T19:24:27.001Z,13.00
2023-02-21T19:26:53.706Z,12.90
2023-02-21T19:29:25.035Z,13.00
2023-02-21T19:31:52.111Z,12.90
2023-02-21T19:34:19.942Z,12.90
2023-02-21T19:36:46.559Z,12.90
2023-02-21T19:39:13.718Z,12.80
2023-02-21T19:41:41.510Z,12.90
2023-02-21T19:44:11.158Z,12.80
2023-02-21T19:46:38.017Z,12.70
2023-02-21T19:49:06.912Z,12.70
2023-02-21T19:51:33.964Z,12.70
2023-02-21T19:54:01.275Z,12.70
2023-02-21T19:56:28.092Z,12.70
2023-02-21T19:58:55.347Z,12.70
2023-02-21T20:01:22.504Z,12.70
2023-02-21T20:03:49.955Z,12.70
2023-02-21T20:06:17.998Z,12.70
2023-02-21T20:08:47.829Z,12.70
2023-02-21T20:11:16.984Z,12.60
2023-02-21T20:13:44.204Z,12.60
2023-02-21T20:16:11.502Z,12.60
2023-02-21T20:18:38.246Z,12.70
2023-02-21T20:21:05.491Z,12.60
2023-02-21T20:23:32.259Z,12.60
2023-02-21T20:25:59.116Z,12.50
2023-02-21T20:28:25.853Z,12.50
2023-02-21T20:30:52.775Z,12.50
2023-02-21T20:33:23.033Z,12.50
2023-02-21T20:35:52.128Z,12.50
2023-02-21T20:38:19.705Z,12.50
2023-02-21T20:40:49.458Z,12.50
2023-02-21T20:43:16.170Z,12.50
2023-02-21T20:45:44.281Z,12.50
2023-02-21T20:48:11.314Z,12.50
2023-02-21T20:50:38.797Z,12.50
2023-02-21T20:53:05.794Z,12.50
2023-02-21T20:55:32.648Z,12.50
2023-02-21T20:57:59.389Z,12.40
2023-02-21T21:00:30.141Z,12.40
2023-02-21T21:02:57.723Z,12.40
2023-02-21T21:05:26.220Z,12.40
2023-02-21T21:07:55.624Z,12.30
2023-02-21T21:10:23.036Z,12.30
2023-02-21T21:12:51.275Z,12.40
2023-02-21T21:15:19.849Z,12.30
2023-02-21T21:17:47.114Z,12.20
2023-02-21T21:20:19.661Z,12.20
2023-02-21T21:22:46.807Z,12.20
2023-02-21T21:25:14.444Z,12.20
2023-02-21T21:27:42.326Z,12.10
2023-02-21T21:30:12.240Z,12.10
2023-02-21T21:32:40.470Z,12.10
2023-02-21T21:35:07.650Z,12.10
2023-02-21T21:37:35.711Z,12.10
2023-02-21T21:40:20.585Z,12.00
2023-02-21T21:42:54.668Z,12.00
2023-02-21T21:45:26.424Z,12.00
2023-02-21T21:47:58.396Z,12.00
2023-02-21T21:50:25.824Z,12.00
2023-02-21T21:52:58.349Z,12.00
2023-02-21T21:55:29.880Z,12.00
2023-02-21T21:57:58.622Z,11.90
2023-02-21T22:00:27.757Z,11.90
2023-02-21T22:02:58.249Z,11.90
2023-02-21T22:05:32.522Z,11.90
2023-02-21T22:07:59.668Z,11.80
2023-02-21T22:10:27.729Z,11.80
2023-02-21T22:12:56.653Z,11.80
2023-02-21T22:15:25.565Z,11.70
2023-02-21T22:17:53.106Z,11.70
2023-02-21T22:20:28.406Z,11.70
2023-02-21T22:22:59.452Z,11.60
2023-02-21T22:25:31.988Z,11.60
2023-02-21T22:28:02.419Z,11.60
2023-02-21T22:30:29.064Z,11.60
2023-02-21T22:32:55.797Z,11.50
2023-02-21T22:35:22.386Z,11.40
2023-02-21T22:37:51.290Z,11.40
2023-02-21T22:40:24.234Z,11.40
2023-02-21T22:42:52.862Z,11.40
2023-02-21T22:45:21.875Z,11.40
2023-02-21T22:47:50.167Z,11.40
2023-02-21T22:50:20.327Z,11.40
2023-02-21T22:52:59.280Z,11.40
2023-02-21T22:55:27.583Z,11.30
2023-02-21T22:57:56.904Z,11.40
2023-02-21T23:00:26.507Z,11.30
2023-02-21T23:02:53.267Z,11.30
2023-02-21T23:05:24.953Z,11.30
2023-02-21T23:07:53.751Z,11.30
2023-02-21T23:10:25.311Z,11.30
2023-02-21T23:12:54.506Z,11.30
2023-02-21T23:15:22.303Z,11.40
2023-02-21T23:17:50.208Z,11.30
2023-02-21T23:20:22.792Z,11.30
2023-02-21T23:22:51.410Z,11.30
2023-02-21T23:25:25.459Z,11.30
2023-02-21T23:27:56.868Z,11.20
2023-02-21T23:30:36.236Z,11.20
2023-02-21T23:33:06.297Z,11.20
2023-02-21T23:35:34.810Z,11.20
2023-02-21T23:38:01.818Z,11.20
2023-02-21T23:40:31.515Z,11.10
2023-02-21T23:42:58.212Z,11.10
2023-02-21T23:45:26.324Z,11.10
2023-02-21T23:47:55.660Z,11.10
2023-02-21T23:50:30.305Z,11.00
2023-02-21T23:52:59.140Z,11.00
2023-02-21T23:55:29.078Z,11.00
2023-02-21T23:57:59.855Z,11.00
